Time;durP1;ratioP1;P1;durP2;ratioP2;P2;SDS_P1;SDS_P2;PMS_P1;PMS_P2;Temp;Humidity;BMP_temperature;BMP_pressure;BME280_temperature;BME280_humidity;BME280_pressure;Samples;Min_cycle;Max_cycle;Signal;HPM_P1;HPM_P2
2022/09/27 00:00:02;;;;;;;0.30;0.30;;;11.80;84.20;;;;;;5043370;28;20052;-79
2022/09/27 00:02:28;;;;;;;0.82;0.40;;;11.80;84.20;;;;;;5042122;28;20037;-78
2022/09/27 00:04:54;;;;;;;5.38;1.40;;;11.80;84.30;;;;;;5034177;28;20101;-79
2022/09/27 00:07:20;;;;;;;3.05;0.43;;;11.80;84.30;;;;;;5062058;28;20119;-77
2022/09/27 00:09:45;;;;;;;0.40;0.40;;;11.80;84.30;;;;;;5063321;28;20037;-77
2022/09/27 00:12:11;;;;;;;2.50;0.50;;;11.70;84.40;;;;;;5065701;28;20610;-78
2022/09/27 00:14:36;;;;;;;0.57;0.28;;;11.70;84.40;;;;;;5047115;28;20048;-78
2022/09/27 00:17:02;;;;;;;2.10;0.40;;;11.70;84.40;;;;;;5062990;28;20033;-78
2022/09/27 00:19:27;;;;;;;1.67;0.40;;;11.70;84.40;;;;;;5033066;28;20063;-79
2022/09/27 00:21:53;;;;;;;1.40;0.77;;;11.70;84.50;;;;;;5053013;28;20041;-77
2022/09/27 00:24:20;;;;;;;1.55;0.35;;;11.70;84.50;;;;;;5065334;28;20040;-77
2022/09/27 00:26:46;;;;;;;0.90;0.30;;;11.70;84.60;;;;;;5039897;28;20046;-78
2022/09/27 00:29:12;;;;;;;1.02;0.30;;;11.70;84.60;;;;;;5034407;28;20114;-77
2022/09/27 00:31:37;;;;;;;0.40;0.40;;;11.70;84.70;;;;;;5056530;28;20037;-77
2022/09/27 00:34:04;;;;;;;0.30;0.30;;;11.70;84.70;;;;;;5057803;28;20054;-78
2022/09/27 00:36:29;;;;;;;0.38;0.30;;;11.70;84.70;;;;;;5041668;28;20116;-77
2022/09/27 00:38:55;;;;;;;0.80;0.28;;;11.70;84.70;;;;;;5067342;28;20534;-78
2022/09/27 00:41:24;;;;;;;3.58;0.40;;;11.60;84.70;;;;;;5067705;28;20124;-78
2022/09/27 00:43:57;;;;;;;2.20;0.38;;;11.70;84.90;;;;;;5047865;28;20055;-78
2022/09/27 00:46:33;;;;;;;0.40;0.40;;;11.60;84.90;;;;;;5036159;28;20044;-77
2022/09/27 00:49:08;;;;;;;0.43;0.38;;;11.70;85.00;;;;;;5035195;28;20056;-79
2022/09/27 00:51:34;;;;;;;1.10;0.50;;;11.70;85.00;;;;;;5045102;28;20052;-79
2022/09/27 00:54:00;;;;;;;0.20;0.20;;;11.60;84.80;;;;;;5063990;28;20029;-78
2022/09/27 00:56:27;;;;;;;0.40;0.40;;;11.70;84.90;;;;;;5094435;28;20037;-78
2022/09/27 00:58:56;;;;;;;2.53;0.35;;;11.60;84.80;;;;;;5065657;28;20035;-78
2022/09/27 01:01:22;;;;;;;0.88;0.25;;;11.60;84.90;;;;;;5064928;28;20105;-77
2022/09/27 01:03:56;;;;;;;1.17;0.30;;;11.60;84.90;;;;;;5066334;28;20032;-78
2022/09/27 01:06:22;;;;;;;0.30;0.30;;;11.60;85.20;;;;;;5078560;28;20037;-78
2022/09/27 01:08:48;;;;;;;0.30;0.30;;;11.60;85.00;;;;;;5063719;28;20040;-78
2022/09/27 01:11:35;;;;;;;0.30;0.30;;;11.60;85.10;;;;;;5066207;28;20287;-78
2022/09/27 01:14:09;;;;;;;0.50;0.30;;;11.60;85.20;;;;;;5075681;28;20561;-78
2022/09/27 01:16:57;;;;;;;0.40;0.40;;;11.60;85.30;;;;;;5077810;28;20036;-76
2022/09/27 01:19:35;;;;;;;0.40;0.40;;;11.60;85.30;;;;;;5063011;28;20040;-78
2022/09/27 01:22:36;;;;;;;0.40;0.38;;;11.60;85.40;;;;;;5045915;28;20063;-78
2022/09/27 01:25:23;;;;;;;0.65;0.60;;;11.60;85.60;;;;;;5058389;28;20052;-78
2022/09/27 01:28:07;;;;;;;0.63;0.43;;;11.60;85.30;;;;;;5063493;28;20074;-78
2022/09/27 01:30:57;;;;;;;0.40;0.35;;;11.60;85.50;;;;;;5071843;28;20578;-77
2022/09/27 01:33:30;;;;;;;0.47;0.40;;;11.60;85.50;;;;;;5057290;28;20036;-78
2022/09/27 01:36:21;;;;;;;1.05;0.30;;;11.60;85.30;;;;;;5033413;28;20110;-78
2022/09/27 01:39:27;;;;;;;1.02;0.30;;;11.60;85.70;;;;;;5076997;28;20105;-78
2022/09/27 01:42:01;;;;;;;0.30;0.30;;;11.60;85.60;;;;;;5002589;28;20049;-78
2022/09/27 01:44:51;;;;;;;0.50;0.40;;;11.50;85.50;;;;;;5050900;28;20105;-77
2022/09/27 01:47:25;;;;;;;0.50;0.32;;;11.50;85.80;;;;;;5066249;28;20036;-77
2022/09/27 01:50:05;;;;;;;0.88;0.20;;;11.50;85.70;;;;;;5062875;28;20180;-77
2022/09/27 01:52:35;;;;;;;0.40;0.30;;;11.60;86.00;;;;;;5063413;28;20039;-78
2022/09/27 01:55:03;;;;;;;0.38;0.30;;;11.50;85.70;;;;;;5064976;28;20066;-78
2022/09/27 01:57:33;;;;;;;1.65;0.30;;;11.60;85.80;;;;;;5048417;28;21085;-77
2022/09/27 02:00:05;;;;;;;0.40;0.35;;;11.50;86.70;;;;;;5049014;28;20499;-77
2022/09/27 02:03:00;;;;;;;0.20;0.20;;;11.60;86.00;;;;;;5017130;28;20049;-78
2022/09/27 02:05:30;;;;;;;2.20;0.30;;;11.50;86.00;;;;;;5024610;28;20071;-78
2022/09/27 02:08:01;;;;;;;4.03;0.38;;;11.50;86.00;;;;;;5005428;28;20119;-77
2022/09/27 02:10:34;;;;;;;1.50;0.52;;;11.50;86.00;;;;;;5022655;28;20119;-78
2022/09/27 02:13:08;;;;;;;1.00;0.35;;;11.50;86.10;;;;;;5024680;28;20732;-78
2022/09/27 02:15:41;;;;;;;0.22;0.22;;;11.50;86.10;;;;;;5039633;28;20044;-77
2022/09/27 02:18:14;;;;;;;0.43;0.30;;;11.50;86.10;;;;;;5011069;28;20044;-77
2022/09/27 02:20:43;;;;;;;0.35;0.20;;;11.50;86.20;;;;;;5022705;28;20037;-76
2022/09/27 02:23:30;;;;;;;0.43;0.30;;;11.50;86.20;;;;;;5019124;28;20581;-77
2022/09/27 02:25:57;;;;;;;0.57;0.40;;;11.50;86.30;;;;;;5038365;28;20029;-78
2022/09/27 02:28:29;;;;;;;0.32;0.32;;;11.50;86.20;;;;;;5022731;28;20366;-77
2022/09/27 02:30:55;;;;;;;0.47;0.32;;;11.50;86.30;;;;;;5030782;28;20037;-78
2022/09/27 02:33:23;;;;;;;0.68;0.30;;;11.50;86.30;;;;;;5047322;28;20127;-77
2022/09/27 02:35:49;;;;;;;0.38;0.30;;;11.50;86.30;;;;;;5044768;28;20024;-78
2022/09/27 02:38:15;;;;;;;0.25;0.25;;;11.50;86.40;;;;;;5077544;28;20051;-76
2022/09/27 02:40:43;;;;;;;0.57;0.30;;;11.50;86.40;;;;;;5065587;28;20123;-77
2022/09/27 02:43:09;;;;;;;0.55;0.40;;;11.50;86.50;;;;;;5076583;28;20028;-77
2022/09/27 15:42:32;;;;;;;;;;;14.60;76.90;;;;;;3894847;28;20434;-74
2022/09/27 15:44:57;;;;;;;;;;;14.50;76.80;;;;;;5047554;28;19942;-75
2022/09/27 15:47:38;;;;;;;;;;;14.40;76.70;;;;;;5044141;28;20395;-75
2022/09/27 15:50:16;;;;;;;;;;;14.40;76.80;;;;;;5061147;28;19913;-75
2022/09/27 15:52:50;;;;;;;;;;;14.30;76.80;;;;;;5061776;28;19999;-75
2022/09/27 15:55:16;;;;;;;;;;;14.20;76.80;;;;;;5044474;28;19977;-74
2022/09/27 15:57:41;;;;;;;;;;;14.20;76.80;;;;;;5047630;28;20035;-76
2022/09/27 16:00:11;;;;;;;;;;;14.20;76.90;;;;;;5068433;28;20379;-75
2022/09/27 16:02:36;;;;;;;;;;;14.10;76.80;;;;;;5044825;28;20369;-74
2022/09/27 16:05:02;;;;;;;;;;;14.10;76.80;;;;;;5064160;28;19923;-75
2022/09/27 16:07:27;;;;;;;;;;;14.00;76.90;;;;;;5080929;28;19916;-75
2022/09/27 16:09:54;;;;;;;;;;;14.00;76.90;;;;;;5061235;28;19916;-75
2022/09/27 16:12:20;;;;;;;;;;;14.00;76.90;;;;;;5064168;28;19913;-75
2022/09/27 16:14:45;;;;;;;;;;;13.90;76.80;;;;;;5040855;28;19912;-74
2022/09/27 16:17:11;;;;;;;;;;;13.90;76.90;;;;;;5061774;28;19922;-74
2022/09/27 16:19:36;;;;;;;;;;;13.80;76.80;;;;;;5042764;28;19999;-75
2022/09/27 16:22:02;;;;;;;;;;;13.80;76.90;;;;;;5058002;28;20311;-75
2022/09/27 16:24:28;;;;;;;;;;;13.70;76.90;;;;;;5064042;28;20003;-75
2022/09/27 16:26:53;;;;;;;;;;;13.70;76.90;;;;;;5044425;28;20438;-75
2022/09/27 16:29:19;;;;;;;;;;;13.70;77.00;;;;;;5065115;28;19964;-75
2022/09/27 16:31:45;;;;;;;;;;;13.60;76.90;;;;;;5060530;28;20375;-75
2022/09/27 16:34:10;;;;;;;;;;;13.60;77.00;;;;;;5065317;28;20183;-75
2022/09/27 16:36:36;;;;;;;;;;;13.60;77.00;;;;;;5045219;28;19967;-75
2022/09/27 16:39:05;;;;;;;;;;;13.50;77.70;;;;;;5061715;28;19952;-74
2022/09/27 16:41:32;;;;;;;;;;;13.50;76.90;;;;;;5064237;28;19926;-74
2022/09/27 16:43:57;;;;;;;;;;;13.50;76.90;;;;;;5069085;28;19999;-75
2022/09/27 16:46:23;;;;;;;;;;;13.50;76.90;;;;;;5077191;28;19987;-75
2022/09/27 16:48:49;;;;;;;;;;;13.50;77.00;;;;;;5074755;28;19919;-75
2022/09/27 16:54:02;;;;;;;;;;;13.40;77.00;;;;;;5074237;28;19981;-74
2022/09/27 16:56:30;;;;;;;;;;;13.30;76.90;;;;;;5076394;28;19927;-75
2022/09/27 16:58:56;;;;;;;;;;;13.30;77.00;;;;;;5072013;28;20272;-75
2022/09/27 17:01:22;;;;;;;;;;;13.20;76.90;;;;;;5075616;28;19921;-76
2022/09/27 17:03:48;;;;;;;;;;;13.30;77.10;;;;;;5071504;28;20402;-74
2022/09/27 17:06:14;;;;;;;;;;;13.20;77.00;;;;;;5077850;28;20310;-76
2022/09/27 17:08:39;;;;;;;;;;;13.20;77.10;;;;;;5064576;28;20007;-75
2022/09/27 17:11:05;;;;;;;;;;;13.20;77.10;;;;;;5057744;28;19919;-76
2022/09/27 17:13:31;;;;;;;;;;;13.10;77.00;;;;;;5075351;28;20238;-75
2022/09/27 17:15:56;;;;;;;;;;;13.00;77.10;;;;;;5055154;28;19916;-75
2022/09/27 17:18:22;;;;;;;;;;;13.10;77.10;;;;;;5083379;28;20396;-77
2022/09/27 17:20:47;;;;;;;;;;;13.00;77.10;;;;;;5083042;28;20007;-76
2022/09/27 17:23:13;;;;;;;;;;;13.00;77.10;;;;;;5082722;28;19946;-77
2022/09/27 17:25:38;;;;;;;;;;;12.90;77.90;;;;;;5099487;28;19912;-76
2022/09/27 17:28:04;;;;;;;;;;;12.90;77.10;;;;;;5077343;28;19975;-76
2022/09/27 17:30:30;;;;;;;;;;;12.80;77.10;;;;;;5083115;28;20429;-75
2022/09/27 17:32:55;;;;;;;;;;;12.80;77.20;;;;;;5072928;28;19912;-76
2022/09/27 17:35:21;;;;;;;;;;;12.80;77.20;;;;;;5059209;28;20242;-75
2022/09/27 17:37:47;;;;;;;;;;;12.70;77.20;;;;;;5075091;28;19980;-76
2022/09/27 17:40:13;;;;;;;;;;;12.70;77.30;;;;;;5061230;28;19916;-75
2022/09/27 17:42:38;;;;;;;;;;;12.60;77.30;;;;;;5075566;28;19970;-76
2022/09/27 17:45:04;;;;;;;;;;;12.60;77.30;;;;;;5036480;28;19920;-75
2022/09/27 17:50:27;;;;;;;;;;;12.40;77.30;;;;;;5053550;28;20422;-77
2022/09/27 17:52:53;;;;;;;;;;;12.30;77.40;;;;;;5035568;28;19917;-75
2022/09/27 17:55:20;;;;;;;;;;;12.20;77.50;;;;;;5053846;28;19977;-76
2022/09/27 17:57:46;;;;;;;;;;;12.10;77.50;;;;;;5034194;28;19946;-76
2022/09/27 18:00:12;;;;;;;;;;;12.10;77.60;;;;;;5052788;28;19975;-77
2022/09/27 18:02:37;;;;;;;;;;;12.00;77.70;;;;;;5034695;28;19951;-76
2022/09/27 18:05:04;;;;;;;;;;;12.00;77.70;;;;;;5052791;28;20007;-77
2022/09/27 18:07:30;;;;;;;;;;;11.90;77.80;;;;;;5053531;28;19995;-77
2022/09/27 18:09:55;;;;;;;;;;;11.90;77.90;;;;;;5053875;28;20399;-77
2022/09/27 18:12:21;;;;;;;;;;;11.80;77.90;;;;;;5054240;28;19916;-77
2022/09/27 18:14:48;;;;;;;;;;;11.70;77.80;;;;;;5057969;28;19916;-77
2022/09/27 18:17:14;;;;;;;;;;;11.70;78.00;;;;;;5036481;28;19936;-78
2022/09/27 18:19:39;;;;;;;;;;;11.70;78.00;;;;;;5040826;28;19924;-77
2022/09/27 18:22:06;;;;;;;;;;;11.60;78.00;;;;;;5054666;28;19958;-77
2022/09/27 18:24:31;;;;;;;;;;;11.60;78.10;;;;;;5057419;28;19920;-76
2022/09/27 18:26:58;;;;;;;;;;;11.50;78.10;;;;;;5040676;28;20295;-75
2022/09/27 18:29:24;;;;;;;;;;;11.50;78.10;;;;;;5037306;28;19966;-77
2022/09/27 18:31:49;;;;;;;;;;;11.50;78.20;;;;;;5053199;28;19956;-76
2022/09/27 18:34:15;;;;;;;;;;;11.40;78.10;;;;;;5017987;28;20379;-78
2022/09/27 18:36:42;;;;;;;;;;;11.40;78.20;;;;;;5036489;28;19912;-74
2022/09/27 18:39:12;;;;;;;;;;;11.40;78.20;;;;;;5055243;28;19908;-76
2022/09/27 18:41:38;;;;;;;;;;;11.40;78.20;;;;;;5055221;28;19908;-77
2022/09/27 18:44:04;;;;;;;;;;;11.30;78.20;;;;;;5064846;28;19947;-76
2022/09/27 18:46:30;;;;;;;;;;;11.30;78.20;;;;;;5071027;28;19921;-77
2022/09/27 18:48:55;;;;;;;;;;;11.30;78.20;;;;;;5052530;28;19927;-77
2022/09/27 18:51:25;;;;;;;;;;;11.30;78.20;;;;;;5071243;28;19920;-78
2022/09/27 18:53:57;;;;;;;;;;;11.20;78.20;;;;;;5054737;28;21232;-78
2022/09/27 18:56:23;;;;;;;;;;;11.20;78.30;;;;;;5053664;28;19932;-77
2022/09/27 18:58:49;;;;;;;;;;;11.20;78.30;;;;;;5058021;28;19915;-77
2022/09/27 19:01:15;;;;;;;;;;;11.10;78.30;;;;;;5055553;28;19980;-77
2022/09/27 19:03:41;;;;;;;;;;;11.10;78.30;;;;;;5070909;28;20540;-77
2022/09/27 19:06:11;;;;;;;;;;;11.10;78.40;;;;;;5067358;28;19916;-77
2022/09/27 19:08:36;;;;;;;;;;;11.10;78.40;;;;;;5052989;28;19924;-76
2022/09/27 19:11:05;;;;;;;;;;;11.00;78.40;;;;;;5069789;28;19924;-77
2022/09/27 19:13:31;;;;;;;;;;;11.00;78.50;;;;;;5068364;28;20261;-77
2022/09/27 19:15:56;;;;;;;;;;;11.00;78.40;;;;;;5071600;28;19930;-77
2022/09/27 19:18:22;;;;;;;;;;;11.00;78.50;;;;;;5051869;28;19927;-76
2022/09/27 19:20:48;;;;;;;;;;;11.00;78.50;;;;;;5053289;28;20399;-77
2022/09/27 19:23:13;;;;;;;;;;;11.00;78.50;;;;;;5064840;28;19938;-76
2022/09/27 19:25:39;;;;;;;;;;;10.90;78.50;;;;;;5069824;28;19977;-78
2022/09/27 19:28:04;;;;;;;;;;;10.90;78.60;;;;;;5068821;28;20607;-77
2022/09/27 19:30:30;;;;;;;;;;;10.90;78.60;;;;;;5069353;28;19912;-78
2022/09/27 19:32:55;;;;;;;;;;;10.80;78.60;;;;;;5051996;28;19919;-78
2022/09/27 19:35:21;;;;;;;;;;;10.80;78.70;;;;;;5073511;28;19912;-78
2022/09/27 19:37:46;;;;;;;;;;;10.80;78.70;;;;;;5055568;28;19919;-77
2022/09/27 19:40:12;;;;;;;;;;;10.80;78.70;;;;;;5069451;28;19915;-77
2022/09/27 19:42:37;;;;;;;;;;;10.80;79.50;;;;;;5070736;28;19928;-78
2022/09/27 19:45:03;;;;;;;;;;;10.80;78.80;;;;;;5053718;28;20280;-78
2022/09/27 19:47:28;;;;;;;;;;;10.80;78.80;;;;;;5071613;28;19920;-78
2022/09/27 19:49:54;;;;;;;;;;;10.80;78.80;;;;;;5055045;28;19927;-78
2022/09/27 19:52:19;;;;;;;;;;;10.80;78.80;;;;;;5053525;28;20053;-77
2022/09/27 19:54:45;;;;;;;;;;;10.80;78.80;;;;;;5073238;28;20031;-77
2022/09/27 19:57:10;;;;;;;;;;;10.70;78.80;;;;;;5067376;28;20375;-77
2022/09/27 19:59:36;;;;;;;;;;;10.70;78.80;;;;;;5071403;28;19927;-77
2022/09/27 20:02:01;;;;;;;;;;;10.70;78.80;;;;;;5080978;28;19938;-79
2022/09/27 20:04:27;;;;;;;;;;;10.70;78.90;;;;;;5070494;28;21186;-77
2022/09/27 20:06:52;;;;;;;;;;;10.70;78.90;;;;;;5041315;28;19917;-76
2022/09/27 20:09:18;;;;;;;;;;;10.70;78.90;;;;;;5050919;28;19967;-76
2022/09/27 20:11:44;;;;;;;;;;;10.70;78.90;;;;;;5054383;28;19912;-76
2022/09/27 20:14:10;;;;;;;;;;;10.80;78.90;;;;;;5072481;28;19919;-77
2022/09/27 20:16:35;;;;;;;;;;;10.70;78.90;;;;;;5073296;28;19912;-78
2022/09/27 20:19:01;;;;;;;;;;;10.70;78.90;;;;;;5070849;28;20659;-77
2022/09/27 20:21:33;;;;;;;;;;;10.70;78.80;;;;;;5085656;28;19916;-77
2022/09/27 20:23:59;;;;;;;;;;;10.70;78.90;;;;;;5092291;28;19916;-76
2022/09/27 20:26:25;;;;;;;;;;;10.70;78.90;;;;;;5072267;28;19912;-75
2022/09/27 20:28:51;;;;;;;;;;;10.70;78.90;;;;;;5076520;28;20337;-76
2022/09/27 20:31:21;;;;;;;;;;;10.70;78.90;;;;;;5075375;28;19920;-76
2022/09/27 20:33:48;;;;;;;;;;;10.70;78.90;;;;;;5073623;28;20006;-76
2022/09/27 20:36:16;;;;;;;;;;;10.70;78.90;;;;;;5072709;28;19919;-75
2022/09/27 20:38:43;;;;;;;;;;;10.60;78.90;;;;;;5077539;28;20387;-76
2022/09/27 20:41:09;;;;;;;;;;;10.60;78.90;;;;;;5073621;28;20404;-76
2022/09/27 20:43:34;;;;;;;;;;;10.60;78.90;;;;;;5074034;28;19986;-75
2022/09/27 20:46:03;;;;;;;;;;;10.60;79.00;;;;;;5058576;28;20482;-75
2022/09/27 20:48:29;;;;;;;;;;;10.60;79.00;;;;;;5075609;28;19925;-75
2022/09/27 20:50:55;;;;;;;;;;;10.60;79.10;;;;;;5070786;28;19966;-76
2022/09/27 20:53:21;;;;;;;;;;;10.50;78.90;;;;;;5056798;28;20036;-76
2022/09/27 20:55:46;;;;;;;;;;;10.50;78.90;;;;;;5047298;28;20129;-74
2022/09/27 20:58:11;;;;;;;;;;;10.50;78.90;;;;;;5074024;28;19916;-77
2022/09/27 21:00:37;;;;;;;;;;;10.50;79.00;;;;;;5075450;28;19917;-75
2022/09/27 21:03:02;;;;;;;;;;;10.50;79.00;;;;;;5077488;28;20049;-75
2022/09/27 21:05:28;;;;;;;;;;;10.50;79.00;;;;;;5059270;28;19927;-76
2022/09/27 21:07:54;;;;;;;;;;;10.40;78.90;;;;;;5074834;28;19934;-76
2022/09/27 21:10:19;;;;;;;;;;;10.40;78.90;;;;;;5056035;28;19939;-75
2022/09/27 21:12:45;;;;;;;;;;;10.40;79.00;;;;;;5037583;28;19916;-76
2022/09/27 21:15:10;;;;;;;;;;;10.40;79.00;;;;;;5059416;28;19918;-76
2022/09/27 21:17:36;;;;;;;;;;;10.40;79.00;;;;;;5056749;28;19916;-76
2022/09/27 21:20:01;;;;;;;;;;;10.30;79.00;;;;;;5075156;28;20376;-76
2022/09/27 21:22:27;;;;;;;;;;;10.30;79.00;;;;;;5076892;28;19915;-77
2022/09/27 21:24:54;;;;;;;;;;;10.30;79.10;;;;;;5060967;28;20490;-76
2022/09/27 21:27:19;;;;;;;;;;;10.30;79.10;;;;;;5059583;28;19919;-75
2022/09/27 21:29:44;;;;;;;;;;;10.30;79.10;;;;;;5062187;28;19916;-75
2022/09/27 21:32:10;;;;;;;;;;;10.30;79.10;;;;;;5072671;28;19912;-75
2022/09/27 21:34:35;;;;;;;;;;;10.20;79.70;;;;;;5054948;28;20741;-76
2022/09/27 21:37:03;;;;;;;;;;;10.20;79.10;;;;;;5074324;28;19920;-76
2022/09/27 21:39:28;;;;;;;;;;;10.20;79.10;;;;;;5060927;28;20008;-76
2022/09/27 21:41:54;;;;;;;;;;;10.20;79.10;;;;;;5074554;28;19943;-77
2022/09/27 21:44:19;;;;;;;;;;;10.10;79.10;;;;;;5052019;28;19935;-76
2022/09/27 21:46:45;;;;;;;;;;;10.10;79.60;;;;;;5034721;28;20442;-76
2022/09/27 21:49:10;;;;;;;;;;;10.10;79.20;;;;;;5055397;28;19923;-76
2022/09/27 21:51:36;;;;;;;;;;;10.00;79.10;;;;;;5038506;28;19920;-75
2022/09/27 21:54:03;;;;;;;;;;;10.00;79.10;;;;;;5068689;28;19958;-75
2022/09/27 21:56:29;;;;;;;;;;;10.00;79.20;;;;;;5053557;28;19944;-76
2022/09/27 21:58:54;;;;;;;;;;;10.00;79.20;;;;;;5054417;28;19919;-75
2022/09/27 22:01:21;;;;;;;;;;;9.90;79.20;;;;;;5033012;28;19913;-76
2022/09/27 22:03:46;;;;;;;;;;;9.90;79.20;;;;;;5023950;28;19917;-76
2022/09/27 22:06:14;;;;;;;;;;;9.90;79.30;;;;;;5050308;28;20200;-76
2022/09/27 22:08:39;;;;;;;;;;;9.90;79.40;;;;;;5067932;28;20993;-75
2022/09/27 22:11:05;;;;;;;;;;;9.90;79.40;;;;;;5052824;28;20554;-77
2022/09/27 22:13:31;;;;;;;;;;;9.80;79.30;;;;;;5034512;28;20007;-76
2022/09/27 22:16:00;;;;;;;;;;;9.80;79.30;;;;;;5051229;28;20511;-76
2022/09/27 22:18:26;;;;;;;;;;;9.80;79.40;;;;;;5053934;28;19916;-75
2022/09/27 22:20:51;;;;;;;;;;;9.70;79.40;;;;;;5056379;28;20827;-75
2022/09/27 22:23:16;;;;;;;;;;;9.80;79.40;;;;;;5056732;28;19916;-76
2022/09/27 22:25:42;;;;;;;;;;;9.70;79.40;;;;;;5035743;28;19947;-75
2022/09/27 22:28:07;;;;;;;;;;;9.70;79.50;;;;;;5020658;28;20491;-75
2022/09/27 22:30:33;;;;;;;;;;;9.70;79.40;;;;;;5036581;28;19912;-75
2022/09/27 22:32:58;;;;;;;;;;;9.70;79.50;;;;;;5051543;28;20277;-76
2022/09/27 22:35:25;;;;;;;;;;;9.60;79.40;;;;;;5036328;28;19916;-76
2022/09/27 22:37:51;;;;;;;;;;;9.60;79.50;;;;;;5036155;28;19920;-75
2022/09/27 22:40:17;;;;;;;;;;;9.60;79.50;;;;;;5051699;28;20577;-76
2022/09/27 22:42:42;;;;;;;;;;;9.60;79.50;;;;;;5039373;28;19921;-76
2022/09/27 22:45:08;;;;;;;;;;;9.60;79.50;;;;;;5074039;28;20372;-76
2022/09/27 22:47:33;;;;;;;;;;;9.50;79.50;;;;;;5059195;28;19955;-75
2022/09/27 22:50:01;;;;;;;;;;;9.50;79.50;;;;;;5072966;28;19920;-76
2022/09/27 22:52:26;;;;;;;;;;;9.50;79.50;;;;;;5067905;28;19915;-75
2022/09/27 22:54:52;;;;;;;;;;;9.50;79.50;;;;;;5070729;28;20002;-76
2022/09/27 22:57:17;;;;;;;;;;;9.40;79.50;;;;;;5056109;28;20033;-76
2022/09/27 22:59:42;;;;;;;;;;;9.40;79.60;;;;;;5054887;28;20457;-75
2022/09/27 23:02:08;;;;;;;;;;;9.40;79.60;;;;;;5069179;28;19999;-75
2022/09/27 23:04:34;;;;;;;;;;;9.40;79.70;;;;;;5072222;28;20002;-77
2022/09/27 23:06:59;;;;;;;;;;;9.40;79.60;;;;;;5071239;28;20487;-76
2022/09/27 23:09:25;;;;;;;;;;;9.40;79.70;;;;;;5069256;28;19916;-75
2022/09/27 23:11:51;;;;;;;;;;;9.40;79.70;;;;;;5062535;28;19923;-76
2022/09/27 23:14:16;;;;;;;;;;;9.40;79.70;;;;;;5087849;28;20722;-76
2022/09/27 23:16:42;;;;;;;;;;;9.40;79.70;;;;;;5068034;28;19920;-75
2022/09/27 23:19:08;;;;;;;;;;;9.40;79.80;;;;;;5072279;28;20713;-76
2022/09/27 23:21:34;;;;;;;;;;;9.40;79.70;;;;;;5068021;28;20436;-75
2022/09/27 23:24:00;;;;;;;;;;;9.40;79.70;;;;;;5085908;28;19928;-76
2022/09/27 23:26:26;;;;;;;;;;;9.40;79.70;;;;;;5055520;28;20837;-76
2022/09/27 23:28:55;;;;;;;;;;;9.40;79.80;;;;;;5044442;28;19976;-77
2022/09/27 23:31:22;;;;;;;;;;;9.40;79.80;;;;;;5052149;28;19966;-74
2022/09/27 23:33:48;;;;;;;;;;;9.40;79.80;;;;;;5054611;28;19931;-76
2022/09/27 23:36:14;;;;;;;;;;;9.40;79.70;;;;;;5068461;28;19912;-75
2022/09/27 23:38:40;;;;;;;;;;;9.40;79.80;;;;;;5070586;28;19920;-76
2022/09/27 23:41:06;;;;;;;;;;;9.40;79.80;;;;;;5072329;28;19912;-75
2022/09/27 23:43:32;;;;;;;;;;;9.40;79.80;;;;;;5054264;28;20393;-75
2022/09/27 23:45:58;;;;;;;;;;;9.40;79.70;;;;;;5054422;28;19927;-75
2022/09/27 23:48:24;;;;;;;;;;;9.40;79.80;;;;;;5055120;28;19958;-76
2022/09/27 23:50:50;;;;;;;;;;;9.40;79.80;;;;;;5067913;28;19915;-75
2022/09/27 23:53:16;;;;;;;;;;;9.40;79.80;;;;;;5071479;28;20401;-76
2022/09/27 23:55:42;;;;;;;;;;;9.40;79.80;;;;;;5063819;28;19916;-75
2022/09/27 23:58:07;;;;;;;;;;;9.40;79.80;;;;;;5076865;28;19967;-76
